createdAt,value
2023-05-09T04:44:05.198Z,10.24
2023-05-09T04:46:33.089Z,10.27
2023-05-09T04:49:01.005Z,10.35
2023-05-09T04:51:29.304Z,10.46
2023-05-09T04:53:57.136Z,10.47
2023-05-09T04:56:24.958Z,10.53
2023-05-09T04:58:53.315Z,10.63
2023-05-09T05:01:22.577Z,10.74
2023-05-09T05:03:50.640Z,10.70
2023-05-09T05:06:18.444Z,10.65
2023-05-09T05:08:46.307Z,10.68
2023-05-09T05:11:14.602Z,10.71
2023-05-09T05:13:42.466Z,10.72
2023-05-09T05:16:10.373Z,10.86
2023-05-09T05:18:39.612Z,11.00
2023-05-09T05:21:07.600Z,11.16
2023-05-09T05:23:35.479Z,11.30
2023-05-09T05:26:03.808Z,11.35
2023-05-09T05:28:31.743Z,11.40
2023-05-09T05:30:59.807Z,11.32
2023-05-09T05:33:27.637Z,11.35
2023-05-09T05:35:57.162Z,11.42
2023-05-09T05:38:25.029Z,11.60
2023-05-09T05:40:52.916Z,11.78
2023-05-09T05:43:20.783Z,11.86
2023-05-09T05:45:48.667Z,11.86
2023-05-09T05:48:16.504Z,11.73
2023-05-09T05:50:44.359Z,11.88
2023-05-09T05:53:13.591Z,11.96
2023-05-09T05:55:41.462Z,12.00
2023-05-09T05:58:09.322Z,11.98
2023-05-09T06:00:37.162Z,11.87
2023-05-09T06:03:05.237Z,11.91
2023-05-09T06:05:33.235Z,11.74
2023-05-09T06:08:01.164Z,11.64
2023-05-09T06:10:30.423Z,11.74
2023-05-09T06:12:58.267Z,11.80
2023-05-09T06:15:26.166Z,12.08
2023-05-09T06:17:54.769Z,12.24
2023-05-09T06:20:22.649Z,12.14
2023-05-09T06:22:50.470Z,12.20
2023-05-09T06:25:18.427Z,12.25
2023-05-09T06:27:47.626Z,12.13
2023-05-09T06:30:25.565Z,11.86
2023-05-09T06:32:54.743Z,12.34
2023-05-09T06:35:22.769Z,12.56
2023-05-09T06:37:50.703Z,12.88
2023-05-09T06:40:18.488Z,13.00
2023-05-09T06:42:47.758Z,12.83
2023-05-09T06:45:16.066Z,13.30
2023-05-09T06:47:44.129Z,13.25
2023-05-09T06:50:12.302Z,13.02
2023-05-09T06:52:40.270Z,12.94
2023-05-09T06:55:09.715Z,12.78
2023-05-09T06:57:37.852Z,12.71
2023-05-09T07:00:10.111Z,12.57
2023-05-09T07:02:41.803Z,12.68
2023-05-09T07:05:10.670Z,12.63
2023-05-09T07:07:38.618Z,12.92
2023-05-09T07:10:12.070Z,13.42
2023-05-09T07:12:43.472Z,13.72
2023-05-09T07:15:20.527Z,14.10
2023-05-09T07:17:53.746Z,14.15
2023-05-09T07:20:21.764Z,14.44
2023-05-09T07:22:49.629Z,14.42
2023-05-09T07:25:17.764Z,14.58
2023-05-09T07:27:45.597Z,14.65
2023-05-09T07:30:15.792Z,14.70
2023-05-09T07:32:43.824Z,14.67
2023-05-09T07:35:11.672Z,14.41
2023-05-09T07:37:39.529Z,14.48
2023-05-09T07:40:09.021Z,14.48
2023-05-09T07:42:37.097Z,14.59
2023-05-09T07:45:06.203Z,14.92
2023-05-09T07:47:35.474Z,15.45
2023-05-09T07:50:03.500Z,15.69
2023-05-09T07:52:35.957Z,15.77
2023-05-09T07:55:04.098Z,15.74
2023-05-09T07:57:31.949Z,15.53
2023-05-09T07:59:59.737Z,15.60
2023-05-09T08:02:27.602Z,15.71
2023-05-09T08:04:56.943Z,15.67
2023-05-09T08:07:26.956Z,15.70
2023-05-09T08:09:54.714Z,16.17
2023-05-09T08:12:22.528Z,16.26
2023-05-09T08:14:50.391Z,16.39
2023-05-09T08:17:18.324Z,16.43
2023-05-09T08:19:46.214Z,16.51
2023-05-09T08:22:19.427Z,16.39
2023-05-09T08:24:47.441Z,16.61
2023-05-09T08:27:17.925Z,16.72
2023-05-09T08:29:45.751Z,17.09
2023-05-09T08:32:14.205Z,16.90
2023-05-09T08:34:42.012Z,17.03
2023-05-09T08:37:09.929Z,17.06
2023-05-09T08:39:39.124Z,17.03
2023-05-09T08:42:08.002Z,16.74
2023-05-09T08:44:36.084Z,16.92
2023-05-09T08:47:05.607Z,16.93
2023-05-09T08:49:36.181Z,17.29
2023-05-09T08:52:04.534Z,17.28
2023-05-09T08:54:33.083Z,17.74
2023-05-09T08:57:02.499Z,17.56
2023-05-09T08:59:33.205Z,17.75
2023-05-09T09:02:01.408Z,18.01
2023-05-09T09:04:29.384Z,17.96
2023-05-09T09:06:57.635Z,18.37
2023-05-09T09:09:26.289Z,18.51
2023-05-09T09:11:55.522Z,18.45
2023-05-09T09:14:28.363Z,18.39
2023-05-09T09:16:58.315Z,18.69
2023-05-09T09:19:32.238Z,18.69
2023-05-09T09:22:04.546Z,19.09
2023-05-09T09:24:32.444Z,19.11
2023-05-09T09:27:07.139Z,18.79
2023-05-09T09:29:39.022Z,18.77
2023-05-09T09:32:07.666Z,18.83
2023-05-09T09:34:44.401Z,18.69
2023-05-09T09:37:23.156Z,18.84
2023-05-09T09:39:58.140Z,19.28
2023-05-09T09:42:25.962Z,18.91
2023-05-09T09:45:03.460Z,19.24
2023-05-09T09:47:34.818Z,19.18
2023-05-09T09:50:11.965Z,19.45
2023-05-09T09:52:44.721Z,18.93
2023-05-09T09:55:19.854Z,18.83
2023-05-09T09:57:48.438Z,18.88
2023-05-09T10:00:27.557Z,18.95
2023-05-09T10:02:57.232Z,19.19
2023-05-09T10:05:26.600Z,19.94
2023-05-09T10:07:59.613Z,20.15
2023-05-09T10:10:29.499Z,19.57
2023-05-09T10:12:59.407Z,20.08
2023-05-09T10:15:41.241Z,19.67
2023-05-09T10:18:19.820Z,19.44
2023-05-09T10:20:48.308Z,20.02
2023-05-09T10:23:18.939Z,19.82
2023-05-09T10:25:52.674Z,19.94
2023-05-09T10:28:25.219Z,20.29
2023-05-09T10:31:07.139Z,19.84
2023-05-09T10:33:44.603Z,19.53
2023-05-09T10:36:20.590Z,20.08
2023-05-09T10:38:52.445Z,19.83
2023-05-09T10:41:22.777Z,20.32
2023-05-09T10:43:51.275Z,20.57
2023-05-09T10:46:21.662Z,20.48
2023-05-09T10:48:50.809Z,20.67
2023-05-09T10:51:19.117Z,20.62
2023-05-09T10:53:48.651Z,20.56
2023-05-09T10:56:27.997Z,20.20
2023-05-09T10:58:56.418Z,20.17
2023-05-09T11:01:35.012Z,20.87
2023-05-09T11:04:19.184Z,21.19
2023-05-09T11:06:51.225Z,21.47
2023-05-09T11:09:28.325Z,21.38
2023-05-09T11:11:58.180Z,21.02
2023-05-09T11:14:30.974Z,21.42
2023-05-09T11:17:01.918Z,21.43
2023-05-09T11:19:58.991Z,21.69
2023-05-09T11:22:28.737Z,21.60
2023-05-09T11:25:04.660Z,21.30
2023-05-09T11:27:40.788Z,20.85
2023-05-09T11:30:11.006Z,21.04
2023-05-09T11:32:48.716Z,21.32
2023-05-09T11:35:18.289Z,21.42
2023-05-09T11:37:48.940Z,21.64
2023-05-09T11:40:18.943Z,21.39
2023-05-09T11:42:49.855Z,21.44
2023-05-09T11:45:22.029Z,21.47
2023-05-09T11:47:52.752Z,21.63
2023-05-09T11:50:22.009Z,21.70
2023-05-09T11:52:51.029Z,21.38
2023-05-09T11:55:23.324Z,21.46
2023-05-09T11:57:56.125Z,21.77
2023-05-09T12:00:26.352Z,21.60
2023-05-09T12:02:55.831Z,21.66
2023-05-09T12:05:24.660Z,21.72
2023-05-09T12:07:56.766Z,21.16
2023-05-09T12:10:24.910Z,21.15
2023-05-09T12:12:55.582Z,21.58
2023-05-09T12:15:23.813Z,21.88
2023-05-09T12:18:05.064Z,22.25
2023-05-09T12:20:43.928Z,22.22
2023-05-09T12:23:12.728Z,21.56
2023-05-09T12:25:40.704Z,22.16
2023-05-09T12:28:09.018Z,22.07
2023-05-09T12:30:37.182Z,22.16
2023-05-09T12:33:07.281Z,22.62
2023-05-09T12:35:35.938Z,22.75
2023-05-09T12:38:03.799Z,22.45
2023-05-09T12:40:32.036Z,22.58
2023-05-09T12:43:02.563Z,21.72
2023-05-09T12:45:33.665Z,22.03
2023-05-09T12:48:02.518Z,22.57
2023-05-09T12:50:36.394Z,21.81
2023-05-09T12:53:05.242Z,20.97
2023-05-09T12:55:41.626Z,21.72
2023-05-09T12:58:09.551Z,21.91
2023-05-09T13:00:47.247Z,22.22
2023-05-09T13:03:25.090Z,22.33
2023-05-09T13:05:59.199Z,22.80
2023-05-09T13:08:28.500Z,22.76
2023-05-09T13:11:08.071Z,22.74
2023-05-09T13:13:43.219Z,23.13
2023-05-09T13:16:12.846Z,23.29
2023-05-09T13:18:42.837Z,22.76
2023-05-09T13:21:12.125Z,23.00
2023-05-09T13:23:41.918Z,22.79
2023-05-09T13:26:09.750Z,22.60
2023-05-09T13:28:37.563Z,22.70
2023-05-09T13:31:08.520Z,22.68
2023-05-09T13:33:36.463Z,21.98
2023-05-09T13:36:04.602Z,22.49
2023-05-09T13:38:38.905Z,22.90
2023-05-09T13:41:06.930Z,22.02
2023-05-09T13:43:35.002Z,22.66
2023-05-09T13:46:02.911Z,23.02
2023-05-09T13:48:30.855Z,23.69
2023-05-09T13:50:59.892Z,23.00
2023-05-09T13:53:27.930Z,22.42
2023-05-09T13:55:57.690Z,22.62
2023-05-09T13:58:25.724Z,22.94
2023-05-09T14:00:53.589Z,22.93
2023-05-09T14:03:21.551Z,22.53
2023-05-09T14:05:49.540Z,22.47
2023-05-09T14:08:17.718Z,21.77
2023-05-09T14:10:45.575Z,22.14
2023-05-09T14:13:15.576Z,22.82
2023-05-09T14:15:46.261Z,22.53
2023-05-09T14:18:17.136Z,22.88
2023-05-09T14:20:46.404Z,23.02
2023-05-09T14:23:14.295Z,22.73
2023-05-09T14:25:45.210Z,22.11
2023-05-09T14:28:14.708Z,22.08
2023-05-09T14:30:42.638Z,22.11
2023-05-09T14:33:10.527Z,22.45
2023-05-09T14:35:41.080Z,22.79
2023-05-09T14:38:09.353Z,22.87
2023-05-09T14:40:37.277Z,22.27
2023-05-09T14:43:05.873Z,22.19
2023-05-09T14:45:35.171Z,22.16
2023-05-09T14:48:05.929Z,22.11
2023-05-09T14:50:33.762Z,22.18
2023-05-09T14:53:02.071Z,22.19
2023-05-09T14:55:31.173Z,22.30
2023-05-09T14:57:59.135Z,22.68
2023-05-09T15:00:28.481Z,22.01
2023-05-09T15:02:58.309Z,22.16
2023-05-09T15:05:26.318Z,22.28
2023-05-09T15:07:54.132Z,22.48
2023-05-09T15:10:22.073Z,23.07
2023-05-09T15:12:49.981Z,23.42
2023-05-09T15:15:19.653Z,23.43
2023-05-09T15:17:47.755Z,22.73
2023-05-09T15:20:18.674Z,22.86
2023-05-09T15:22:48.097Z,23.00
2023-05-09T15:25:16.284Z,22.71
2023-05-09T18:33:22.093Z,17.85
2023-05-09T18:35:50.131Z,17.76
2023-05-09T18:38:18.447Z,17.79
2023-05-09T18:40:46.869Z,17.75
2023-05-09T18:43:16.633Z,17.63
2023-05-09T18:45:47.955Z,17.59
2023-05-09T18:48:17.123Z,17.60
2023-05-09T18:50:47.501Z,17.50
2023-05-09T18:53:15.614Z,17.56
2023-05-09T18:55:44.092Z,17.55
2023-05-09T18:58:12.503Z,17.55
2023-05-09T19:00:42.879Z,17.39
2023-05-09T19:03:11.206Z,17.42
2023-05-09T19:05:39.413Z,17.28
2023-05-09T19:08:11.706Z,17.28
2023-05-09T19:10:42.818Z,17.38
2023-05-09T19:13:11.017Z,17.21
2023-05-09T19:15:39.541Z,17.38
2023-05-09T19:18:07.599Z,17.22
2023-05-09T19:20:35.721Z,17.22
2023-05-09T19:23:03.692Z,17.25
2023-05-09T19:25:33.898Z,17.24
2023-05-09T19:28:02.006Z,17.28
2023-05-09T19:30:30.170Z,17.25
2023-05-09T19:32:58.351Z,17.29
2023-05-09T19:35:26.727Z,17.20
2023-05-09T19:37:55.331Z,17.18
2023-05-09T19:40:26.870Z,17.07
2023-05-09T19:43:09.799Z,16.99
2023-05-09T19:45:37.867Z,17.00
2023-05-09T19:48:06.373Z,16.96
2023-05-09T19:50:34.402Z,17.03
2023-05-09T19:53:02.518Z,17.01
2023-05-09T19:55:30.790Z,16.91
2023-05-09T19:58:00.302Z,16.95
2023-05-09T20:00:33.571Z,17.03
2023-05-09T20:03:05.396Z,17.03
2023-05-09T20:05:35.150Z,16.98
2023-05-09T20:08:06.528Z,17.01
2023-05-09T20:10:38.886Z,16.94
2023-05-09T20:13:08.648Z,16.97
2023-05-09T20:15:36.817Z,17.15
2023-05-09T20:18:07.228Z,16.99
2023-05-09T20:20:37.525Z,16.91
2023-05-09T20:23:29.660Z,16.47
2023-05-09T20:25:58.260Z,16.10
2023-05-09T20:28:28.376Z,15.70
2023-05-09T20:30:59.994Z,15.62
2023-05-09T20:33:32.478Z,15.56
2023-05-09T20:36:00.870Z,15.43
2023-05-09T20:38:30.487Z,15.04
2023-05-09T20:40:58.520Z,14.94
2023-05-09T20:43:27.894Z,14.75
2023-05-09T20:45:55.903Z,14.65
2023-05-09T20:48:30.159Z,14.58
2023-05-09T20:50:58.358Z,14.55
2023-05-09T20:53:27.758Z,14.51
2023-05-09T20:55:55.848Z,14.50
2023-05-09T20:58:23.913Z,14.39
2023-05-09T21:00:54.329Z,14.40
2023-05-09T21:03:26.615Z,14.53
2023-05-09T21:05:56.481Z,14.58
2023-05-09T21:08:27.083Z,14.60
2023-05-09T21:10:59.160Z,14.58
2023-05-09T21:13:27.260Z,14.64
2023-05-09T21:15:59.554Z,14.60
2023-05-09T21:18:27.593Z,14.56
2023-05-09T21:20:56.716Z,14.48
2023-05-09T21:23:24.801Z,14.48
2023-05-09T21:25:52.863Z,14.49
2023-05-09T21:28:20.915Z,14.55
2023-05-09T21:30:57.706Z,14.60
2023-05-09T21:33:27.121Z,14.68
2023-05-09T21:35:56.788Z,14.69
2023-05-09T21:38:26.143Z,14.82
2023-05-09T21:40:54.263Z,14.83
2023-05-09T21:43:22.263Z,14.88
2023-05-09T21:45:50.208Z,14.96
2023-05-09T21:48:19.990Z,14.98
2023-05-09T21:50:49.452Z,14.81
2023-05-09T21:53:17.422Z,14.91
2023-05-09T21:55:45.434Z,14.99
2023-05-09T21:58:13.475Z,15.11
2023-05-09T22:00:41.427Z,15.12
2023-05-09T22:03:09.385Z,15.03
2023-05-09T22:05:37.344Z,14.98
2023-05-09T22:08:06.921Z,15.05
2023-05-09T22:10:34.868Z,15.13
2023-05-09T22:13:02.900Z,15.18
2023-05-09T22:15:30.852Z,15.13
2023-05-09T22:17:58.884Z,14.80
2023-05-09T22:20:27.145Z,14.80
2023-05-09T22:22:55.134Z,14.71
2023-05-09T22:25:24.412Z,14.59
2023-05-09T22:27:52.642Z,14.65
2023-05-09T22:30:20.563Z,14.77
2023-05-09T22:32:48.663Z,14.74
2023-05-09T22:35:16.640Z,14.81
2023-05-09T22:37:44.643Z,14.96
2023-05-09T22:40:13.189Z,14.94
2023-05-09T22:42:42.695Z,14.92
2023-05-09T22:45:11.575Z,14.88
2023-05-09T22:47:39.603Z,14.75
2023-05-09T22:50:09.001Z,14.71
2023-05-09T22:52:36.970Z,14.67
2023-05-09T22:55:05.347Z,14.66
2023-05-09T22:57:33.285Z,14.59
2023-05-09T23:00:03.229Z,14.50
2023-05-09T23:02:31.329Z,14.59
2023-05-09T23:04:59.495Z,14.51
2023-05-09T23:07:27.423Z,14.35
2023-05-09T23:09:55.452Z,14.21
2023-05-09T23:12:23.546Z,14.08
2023-05-09T23:14:51.469Z,14.10
2023-05-09T23:17:21.300Z,13.92
2023-05-09T23:19:49.178Z,13.80
2023-05-09T23:22:17.282Z,13.77
2023-05-09T23:24:45.181Z,13.79
2023-05-09T23:27:13.142Z,13.76
2023-05-09T23:29:41.129Z,13.94
2023-05-09T23:32:09.064Z,13.83
2023-05-09T23:34:38.997Z,13.80
2023-05-09T23:37:07.056Z,13.85
2023-05-09T23:39:34.992Z,13.90
2023-05-09T23:42:04.117Z,13.96
2023-05-09T23:44:32.279Z,13.91
2023-05-09T23:47:01.793Z,14.03
2023-05-09T23:49:30.245Z,14.07
2023-05-09T23:51:59.774Z,14.03
2023-05-09T23:54:28.337Z,14.06
2023-05-09T23:57:01.311Z,14.02
2023-05-09T23:59:29.487Z,13.96
